Ana Sayfa
METAR-TAF:

METAR-TAF

Havaalanları :

Pittsburg, Kansas, Amerika Birleşik Devletleri

Enlem: 37-26-58N, Boylam: 094-43-52W, yükseklik: 290 m

Güncel hava durumu gözlemi

Rapor saat 20:55 UTC de 24 dakika önce yapıldı.
Rüzgar güney/güneybatıdan 8 kt
Sıcaklık 11°C
Nem 76%
Basınç 1015 hPa
Görüş mesafesi: 16.1 km
3600 ft yükseklikte parçalı çok bulutlu
4400 ft yükseklikte çok bulutlu

METAR: KPTS 232055Z AUTO 20008KT 10SM BKN036 OVC044 11/07 A2996 RMK AO2 T01070065

Saat: 15:19 (21:19 UTC)


TAF: eksik

4.000'den fazla havaalanı için hava durumu gözlemleri ve tahminleri (METAR ve TAF raporları).

Kullanılabilir istasyonlar harita üzerinde sarı ve kırmızı noktalarla gösterilir.

İstasyonun adını görmek için fareyi noktanın üzerinde gezdirin.

Sonrasında hava gözlem ve tahminlerini görmek için tıklayın.

Haritayı değiştirmek için: yaklaştırmak için siyah artı işaretli yeşil düğmeye ve uzaklaştırmak için de eksi işaretli düğmeye hızla tıklayın; bitişik haritalar için yeşil okları kullanın.


METAR-TAF: